createdAt,value
2023-03-30T00:00:18.927Z,68.83
2023-03-30T00:01:51.222Z,68.20
2023-03-30T00:03:25.235Z,67.92
2023-03-30T00:05:03.611Z,67.63
2023-03-30T00:06:35.849Z,67.56
2023-03-30T00:08:07.947Z,67.49
2023-03-30T00:09:42.779Z,67.51
2023-03-30T00:11:16.082Z,68.26
2023-03-30T00:12:51.253Z,68.75
2023-03-30T00:14:32.427Z,68.73
2023-03-30T00:16:06.793Z,68.93
2023-03-30T00:17:39.586Z,69.23
2023-03-30T00:19:11.916Z,69.77
2023-03-30T00:20:45.518Z,69.41
2023-03-30T00:22:17.466Z,69.45
2023-03-30T00:23:50.107Z,69.53
2023-03-30T00:25:23.710Z,69.48
2023-03-30T00:26:55.815Z,69.63
2023-03-30T00:28:31.177Z,69.73
2023-03-30T00:30:05.332Z,70.00
2023-03-30T00:31:37.894Z,69.89
2023-03-30T00:33:10.090Z,69.51
2023-03-30T00:34:42.568Z,69.59
2023-03-30T00:36:16.252Z,69.33
2023-03-30T00:37:50.193Z,69.03
2023-03-30T00:39:23.167Z,69.36
2023-03-30T00:41:00.302Z,68.92
2023-03-30T00:42:32.347Z,69.19
2023-03-30T00:44:07.376Z,69.11
2023-03-30T00:45:40.803Z,68.43
2023-03-30T00:47:13.513Z,68.25
2023-03-30T00:48:45.720Z,68.37
2023-03-30T00:50:22.336Z,68.82
2023-03-30T00:51:54.657Z,68.80
2023-03-30T00:53:30.930Z,69.05
2023-03-30T00:55:03.431Z,69.42
2023-03-30T00:56:35.989Z,69.62
2023-03-30T00:58:10.344Z,69.78
2023-03-30T00:59:43.003Z,70.38
2023-03-30T01:01:19.174Z,70.51
2023-03-30T01:02:56.576Z,70.32
2023-03-30T01:04:28.804Z,70.59
2023-03-30T01:06:04.647Z,70.41
2023-03-30T01:07:38.788Z,70.49
2023-03-30T01:09:11.276Z,70.52
2023-03-30T01:10:46.989Z,70.64
2023-03-30T01:12:20.379Z,70.60
2023-03-30T01:13:57.154Z,70.38
2023-03-30T01:15:40.471Z,70.07
2023-03-30T01:17:37.502Z,70.12
2023-03-30T01:19:24.433Z,70.30
2023-03-30T01:21:23.655Z,70.61
2023-03-30T01:23:56.905Z,70.83
2023-03-30T01:25:37.123Z,71.36
2023-03-30T01:27:20.047Z,71.09
2023-03-30T01:28:55.732Z,71.13
2023-03-30T01:30:36.777Z,70.99
2023-03-30T01:32:11.659Z,70.81
2023-03-30T01:33:49.619Z,70.54
2023-03-30T01:35:50.157Z,70.15
2023-03-30T01:37:40.253Z,70.28
2023-03-30T01:39:34.217Z,70.33
2023-03-30T01:41:17.372Z,70.52
2023-03-30T01:42:49.496Z,70.42
2023-03-30T01:44:37.180Z,70.42
2023-03-30T01:46:17.507Z,70.58
2023-03-30T01:47:57.561Z,70.31
2023-03-30T01:49:36.932Z,70.35
2023-03-30T01:52:56.819Z,70.85
2023-03-30T01:54:33.510Z,71.09
2023-03-30T01:56:12.418Z,71.05
2023-03-30T01:57:49.959Z,71.47
2023-03-30T01:59:30.447Z,71.67
2023-03-30T02:01:03.313Z,71.71
2023-03-30T02:02:36.228Z,71.75
2023-03-30T02:04:09.971Z,71.70
2023-03-30T02:05:43.262Z,71.87
2023-03-30T02:07:18.885Z,72.07
2023-03-30T02:08:54.973Z,71.64
2023-03-30T02:10:29.660Z,71.52
2023-03-30T02:12:05.237Z,71.55
2023-03-30T02:13:38.638Z,71.95
2023-03-30T02:15:12.725Z,71.83
2023-03-30T02:16:50.304Z,72.04
2023-03-30T02:18:22.454Z,72.04
2023-03-30T02:19:56.990Z,72.29
2023-03-30T02:21:30.441Z,72.17
2023-03-30T02:23:04.090Z,72.12
2023-03-30T02:24:36.982Z,72.32
2023-03-30T02:26:10.148Z,72.24
2023-03-30T02:27:45.418Z,72.00
2023-03-30T02:29:18.752Z,71.68
2023-03-30T02:30:50.995Z,71.84
2023-03-30T02:32:32.999Z,71.90
2023-03-30T02:34:29.452Z,71.83
2023-03-30T02:36:06.327Z,71.86
2023-03-30T02:38:05.464Z,71.93
2023-03-30T02:39:44.456Z,72.08
2023-03-30T02:41:34.353Z,72.50
2023-03-30T02:43:22.542Z,72.39
2023-03-30T02:45:16.103Z,72.46
2023-03-30T02:46:53.925Z,72.23
2023-03-30T02:48:30.021Z,72.17
2023-03-30T02:50:15.205Z,71.91
2023-03-30T02:51:53.114Z,71.73
2023-03-30T02:53:36.490Z,71.45
2023-03-30T02:55:20.060Z,71.42
2023-03-30T02:56:52.342Z,71.23
2023-03-30T02:58:35.587Z,70.95
2023-03-30T03:00:13.613Z,70.80
2023-03-30T03:01:57.262Z,70.55
2023-03-30T03:03:49.837Z,70.58
2023-03-30T03:05:22.859Z,70.73
2023-03-30T03:06:56.191Z,70.84
2023-03-30T03:08:31.180Z,71.26
2023-03-30T03:10:03.612Z,70.95
2023-03-30T03:11:35.904Z,71.13
2023-03-30T03:13:09.126Z,70.96
2023-03-30T03:14:41.253Z,71.21
2023-03-30T03:16:13.422Z,71.49
2023-03-30T03:17:45.682Z,71.25
2023-03-30T03:20:56.626Z,71.63
2023-03-30T03:22:28.727Z,71.81
2023-03-30T03:24:00.910Z,71.68
2023-03-30T03:25:33.080Z,71.84
2023-03-30T03:27:05.500Z,71.81
2023-03-30T03:28:37.985Z,71.74
2023-03-30T03:30:11.140Z,71.81
2023-03-30T03:31:43.446Z,71.88
2023-03-30T03:33:15.584Z,71.69
2023-03-30T03:34:47.862Z,71.73
2023-03-30T03:36:19.965Z,71.88
2023-03-30T03:37:52.119Z,71.88
2023-03-30T03:39:24.822Z,71.68
2023-03-30T03:40:58.849Z,71.80
2023-03-30T03:42:31.266Z,72.15
2023-03-30T03:44:03.355Z,72.11
2023-03-30T03:45:35.640Z,72.02
2023-03-30T03:47:07.938Z,72.12
2023-03-30T03:48:40.127Z,72.00
2023-03-30T03:50:12.586Z,71.61
2023-03-30T03:51:44.709Z,71.67
2023-03-30T03:53:16.978Z,71.09
2023-03-30T03:54:49.240Z,71.12
2023-03-30T03:56:21.741Z,71.25
2023-03-30T03:57:53.846Z,71.44
2023-03-30T03:59:26.144Z,71.52
2023-03-30T04:01:02.162Z,71.68
2023-03-30T04:02:34.711Z,72.07
2023-03-30T04:05:40.348Z,72.57
2023-03-30T04:07:12.575Z,72.79
2023-03-30T04:08:44.763Z,73.04
2023-03-30T04:10:17.078Z,73.09
2023-03-30T04:11:49.967Z,72.94
2023-03-30T04:13:22.242Z,72.91
2023-03-30T04:14:54.318Z,73.00
2023-03-30T04:16:26.741Z,73.16
2023-03-30T04:17:59.062Z,73.65
2023-03-30T04:19:31.876Z,73.52
2023-03-30T04:21:07.614Z,73.82
2023-03-30T04:22:42.413Z,74.01
2023-03-30T04:24:14.614Z,74.03
2023-03-30T04:25:46.711Z,74.00
2023-03-30T04:27:19.556Z,73.76
2023-03-30T04:28:54.114Z,73.77
2023-03-30T04:30:26.215Z,74.11
2023-03-30T04:32:03.140Z,74.24
2023-03-30T04:33:35.420Z,74.45
2023-03-30T04:35:08.875Z,74.63
2023-03-30T04:36:43.981Z,74.29
2023-03-30T04:38:22.621Z,74.29
2023-03-30T04:39:58.082Z,74.34
2023-03-30T04:41:36.225Z,74.41
2023-03-30T04:43:08.720Z,74.40
2023-03-30T04:44:41.438Z,74.28
2023-03-30T04:46:13.733Z,74.25
2023-03-30T04:47:49.498Z,74.31
2023-03-30T04:49:21.741Z,74.37
2023-03-30T04:50:54.616Z,74.28
2023-03-30T04:52:26.805Z,74.08
2023-03-30T04:53:59.103Z,74.07
2023-03-30T04:55:31.310Z,74.11
2023-03-30T04:57:03.675Z,73.94
2023-03-30T04:58:35.880Z,73.82
2023-03-30T05:00:09.886Z,73.89
2023-03-30T05:01:42.509Z,73.95
2023-03-30T05:03:15.129Z,73.81
2023-03-30T05:04:47.341Z,73.51
2023-03-30T05:06:19.543Z,73.21
2023-03-30T05:07:52.309Z,73.01
2023-03-30T05:09:25.132Z,72.98
2023-03-30T05:11:01.524Z,73.00
2023-03-30T05:12:33.804Z,72.89
2023-03-30T05:14:06.529Z,72.70
2023-03-30T05:15:39.372Z,72.29
2023-03-30T05:17:12.103Z,71.94
2023-03-30T05:18:44.972Z,71.64
2023-03-30T05:20:18.714Z,71.52
2023-03-30T05:21:51.070Z,71.38
2023-03-30T05:23:24.862Z,71.13
2023-03-30T05:24:57.173Z,70.95
2023-03-30T05:26:29.346Z,70.52
2023-03-30T05:28:01.665Z,70.25
2023-03-30T05:29:33.825Z,70.32
2023-03-30T05:31:06.484Z,70.01
2023-03-30T05:32:38.928Z,69.81
2023-03-30T05:34:11.789Z,69.54
2023-03-30T05:35:43.869Z,69.15
2023-03-30T05:37:16.334Z,68.90
2023-03-30T05:38:48.566Z,68.27
2023-03-30T05:40:20.855Z,68.24
2023-03-30T05:41:53.446Z,68.63
2023-03-30T05:43:25.692Z,68.64
2023-03-30T05:44:58.060Z,68.90
2023-03-30T05:46:30.318Z,69.01
2023-03-30T05:49:38.571Z,68.42
2023-03-30T05:51:10.668Z,68.02
2023-03-30T05:52:43.164Z,67.88
2023-03-30T05:54:15.328Z,68.07
2023-03-30T05:55:48.408Z,67.78
2023-03-30T05:57:21.545Z,68.18
2023-03-30T05:58:53.727Z,68.29
2023-03-30T06:00:26.483Z,67.70
2023-03-30T06:01:59.032Z,67.58
2023-03-30T06:03:31.426Z,66.87
2023-03-30T06:05:04.228Z,66.34
2023-03-30T06:06:36.879Z,65.44
2023-03-30T06:08:10.203Z,64.66
2023-03-30T06:09:42.700Z,64.58
2023-03-30T06:11:14.852Z,64.31
2023-03-30T06:12:47.012Z,63.64
2023-03-30T06:14:19.457Z,63.54
2023-03-30T06:15:51.835Z,62.88
2023-03-30T06:17:26.373Z,63.02
2023-03-30T06:19:09.540Z,62.60
2023-03-30T06:20:41.866Z,61.99
2023-03-30T06:22:14.066Z,61.54
2023-03-30T06:23:46.717Z,61.04
2023-03-30T06:25:22.228Z,59.77
2023-03-30T06:26:56.371Z,60.29
2023-03-30T06:28:28.992Z,59.47
2023-03-30T06:30:01.105Z,59.47
2023-03-30T06:31:34.406Z,58.26
2023-03-30T06:33:06.910Z,57.69
2023-03-30T06:34:39.119Z,58.28
2023-03-30T06:36:13.200Z,57.63
2023-03-30T06:37:45.660Z,57.49
2023-03-30T06:39:18.056Z,57.83
2023-03-30T06:40:51.569Z,57.58
2023-03-30T06:42:23.722Z,56.24
2023-03-30T06:43:56.020Z,56.57
2023-03-30T06:45:28.352Z,56.74
2023-03-30T06:47:01.418Z,56.55
2023-03-30T06:48:33.628Z,56.26
2023-03-30T06:50:06.353Z,55.47
2023-03-30T06:51:38.589Z,55.81
2023-03-30T06:53:11.085Z,55.04
2023-03-30T06:54:43.185Z,55.38
2023-03-30T06:56:15.623Z,55.05
2023-03-30T06:57:47.755Z,54.54
2023-03-30T06:59:20.098Z,54.08
2023-03-30T07:00:52.826Z,53.72
2023-03-30T07:02:26.270Z,53.35
2023-03-30T07:03:58.550Z,52.82
2023-03-30T07:05:30.779Z,52.80
2023-03-30T07:07:02.941Z,52.62
2023-03-30T07:08:36.281Z,53.00
2023-03-30T07:10:11.749Z,51.73
2023-03-30T07:11:43.920Z,52.13
2023-03-30T07:13:17.382Z,52.07
2023-03-30T07:14:49.577Z,51.49
2023-03-30T07:16:21.932Z,49.93
2023-03-30T07:17:54.307Z,50.24
2023-03-30T07:19:26.474Z,49.50
2023-03-30T07:21:01.470Z,48.61
2023-03-30T07:22:33.863Z,48.85
2023-03-30T07:24:06.547Z,47.83
2023-03-30T07:25:40.583Z,46.21
2023-03-30T07:27:12.801Z,46.51
2023-03-30T07:28:46.171Z,46.73
2023-03-30T07:30:22.281Z,46.37
2023-03-30T07:31:57.162Z,42.70
2023-03-30T07:35:01.130Z,44.02
2023-03-30T07:36:33.471Z,43.45
2023-03-30T07:38:05.653Z,43.53
2023-03-30T07:39:38.675Z,42.91
2023-03-30T07:41:13.075Z,42.29
2023-03-30T07:42:45.198Z,42.81
2023-03-30T07:44:17.454Z,42.60
2023-03-30T07:45:49.732Z,40.91
2023-03-30T07:47:22.213Z,41.48
2023-03-30T07:48:55.408Z,42.49
2023-03-30T07:50:27.620Z,42.39
2023-03-30T07:51:59.943Z,40.79
2023-03-30T07:53:32.112Z,41.96
2023-03-30T07:55:04.702Z,40.52
2023-03-30T07:56:39.742Z,40.80
2023-03-30T07:58:12.262Z,39.61
2023-03-30T07:59:44.398Z,40.12
2023-03-30T08:01:16.836Z,38.91
2023-03-30T08:02:49.565Z,38.55
2023-03-30T08:04:24.077Z,38.14
2023-03-30T08:06:06.927Z,38.19
2023-03-30T08:07:39.511Z,38.89
2023-03-30T08:09:12.446Z,38.40
2023-03-30T08:10:45.685Z,38.37
2023-03-30T08:12:17.920Z,37.36
2023-03-30T08:13:50.181Z,38.38
2023-03-30T08:15:22.617Z,38.83
2023-03-30T08:16:55.259Z,38.65
2023-03-30T08:18:29.035Z,37.42
2023-03-30T08:20:02.289Z,36.90
2023-03-30T08:21:34.627Z,38.67
2023-03-30T08:23:08.957Z,38.56
2023-03-30T08:24:41.027Z,38.48
2023-03-30T08:26:13.334Z,36.72
2023-03-30T08:27:45.449Z,37.45
2023-03-30T08:29:17.726Z,36.58
2023-03-30T08:30:50.313Z,36.34
2023-03-30T08:32:22.801Z,36.77
2023-03-30T08:33:55.060Z,37.60
2023-03-30T08:35:27.241Z,37.96
2023-03-30T08:36:59.472Z,37.49
2023-03-30T08:38:31.637Z,36.08
2023-03-30T08:40:06.106Z,36.90
2023-03-30T08:42:01.641Z,39.18
2023-03-30T08:43:36.974Z,39.36
2023-03-30T08:45:11.435Z,38.94
2023-03-30T08:46:44.551Z,39.20
2023-03-30T08:48:22.756Z,37.33
2023-03-30T08:50:22.409Z,37.90
2023-03-30T08:51:55.407Z,37.86
2023-03-30T08:53:29.640Z,37.99
2023-03-30T08:55:02.254Z,36.65
2023-03-30T08:56:45.975Z,36.97
2023-03-30T08:58:27.561Z,37.55
2023-03-30T09:00:27.970Z,37.88
2023-03-30T09:02:12.394Z,38.29
2023-03-30T09:03:51.045Z,37.95
2023-03-30T09:05:37.942Z,37.18
2023-03-30T09:07:19.999Z,35.98
2023-03-30T09:08:56.105Z,36.40
2023-03-30T09:10:32.402Z,35.49
2023-03-30T09:12:19.172Z,35.27
2023-03-30T09:13:52.080Z,35.58
2023-03-30T09:15:37.466Z,34.55
2023-03-30T09:17:17.318Z,33.58
2023-03-30T09:18:55.852Z,34.10
2023-03-30T09:20:33.483Z,34.91
2023-03-30T09:22:06.706Z,34.59
2023-03-30T09:23:39.671Z,36.23
2023-03-30T09:25:22.965Z,37.06
2023-03-30T09:27:10.617Z,35.55
2023-03-30T09:28:48.679Z,35.85
2023-03-30T09:30:23.498Z,34.26
2023-03-30T09:32:11.341Z,33.83
2023-03-30T09:33:53.150Z,33.22
2023-03-30T09:35:45.342Z,34.12
2023-03-30T09:37:19.341Z,33.83
2023-03-30T09:38:52.631Z,34.07
2023-03-30T09:40:38.583Z,34.33
2023-03-30T09:42:39.609Z,34.35
2023-03-30T09:44:36.153Z,34.57
2023-03-30T09:46:09.654Z,34.05
2023-03-30T09:47:42.737Z,33.71
2023-03-30T09:49:17.008Z,33.89
2023-03-30T09:50:52.365Z,33.22
2023-03-30T09:52:26.736Z,32.75
2023-03-30T09:54:04.802Z,32.44
2023-03-30T09:55:38.335Z,32.95
2023-03-30T09:57:31.006Z,34.04
2023-03-30T09:59:27.689Z,33.95
2023-03-30T10:01:01.058Z,33.35
2023-03-30T10:02:34.477Z,32.95
2023-03-30T10:04:11.983Z,32.99
2023-03-30T10:05:44.505Z,32.61
2023-03-30T10:07:31.662Z,31.80
2023-03-30T10:09:06.740Z,32.20
2023-03-30T10:10:41.400Z,32.46
2023-03-30T10:12:13.935Z,31.83
2023-03-30T10:13:46.631Z,31.32
2023-03-30T10:15:20.105Z,31.10
2023-03-30T10:16:52.359Z,31.40
2023-03-30T10:18:44.809Z,32.08
2023-03-30T10:21:02.330Z,30.45
2023-03-30T10:22:37.989Z,29.43
2023-03-30T10:24:16.283Z,33.55
2023-03-30T10:25:52.450Z,30.88
2023-03-30T10:27:34.589Z,33.23
2023-03-30T10:29:08.379Z,31.01
2023-03-30T10:30:41.141Z,31.00
2023-03-30T10:32:28.981Z,29.56
2023-03-30T10:34:02.149Z,30.24
2023-03-30T10:35:37.302Z,28.99
2023-03-30T10:37:22.871Z,29.49
2023-03-30T10:39:02.900Z,29.60
2023-03-30T10:40:44.217Z,29.26
2023-03-30T10:42:22.561Z,27.83
2023-03-30T10:43:57.783Z,26.29
2023-03-30T10:45:37.310Z,25.99
2023-03-30T10:47:17.881Z,25.47
2023-03-30T10:49:20.885Z,23.49
2023-03-30T10:51:08.181Z,24.14
2023-03-30T10:53:13.841Z,25.66
2023-03-30T10:54:52.299Z,26.57
2023-03-30T10:56:31.002Z,27.86
2023-03-30T10:58:25.348Z,25.81
2023-03-30T11:00:04.679Z,24.54
2023-03-30T11:02:01.894Z,24.98
2023-03-30T11:03:35.993Z,25.67
2023-03-30T11:05:08.057Z,25.56
2023-03-30T11:06:44.429Z,26.50
2023-03-30T11:08:20.490Z,23.35
2023-03-30T11:09:59.425Z,23.71
2023-03-30T11:11:46.077Z,25.15
2023-03-30T11:13:42.382Z,26.42
2023-03-30T11:15:23.916Z,27.65
2023-03-30T11:17:01.297Z,27.52
2023-03-30T11:18:50.440Z,26.55
2023-03-30T11:20:27.829Z,27.64
2023-03-30T11:22:09.141Z,27.32
2023-03-30T11:23:41.314Z,26.58
2023-03-30T11:25:21.922Z,27.14
2023-03-30T11:27:06.114Z,26.79
2023-03-30T11:28:54.358Z,27.86
2023-03-30T11:30:29.718Z,26.96
2023-03-30T11:32:26.551Z,26.90
2023-03-30T11:34:20.791Z,26.20
2023-03-30T11:36:20.798Z,25.82
2023-03-30T11:38:29.163Z,26.01
2023-03-30T11:40:30.998Z,24.94
2023-03-30T11:42:10.809Z,26.13
2023-03-30T11:43:43.237Z,26.48
2023-03-30T11:45:27.510Z,26.82
2023-03-30T11:47:23.057Z,27.42
2023-03-30T11:49:22.189Z,28.63
2023-03-30T11:51:06.905Z,28.87
2023-03-30T11:53:05.366Z,27.54
2023-03-30T11:55:03.636Z,28.47
2023-03-30T11:56:47.529Z,26.59
2023-03-30T11:58:39.401Z,28.25
2023-03-30T12:00:41.226Z,26.65
2023-03-30T12:02:34.801Z,27.47
2023-03-30T12:04:11.165Z,28.06
2023-03-30T12:05:48.784Z,27.98
2023-03-30T12:07:40.937Z,28.65
2023-03-30T12:09:27.008Z,28.49
2023-03-30T12:11:17.757Z,28.33
2023-03-30T12:12:52.511Z,28.06
2023-03-30T12:14:54.784Z,28.21
2023-03-30T12:16:41.120Z,27.58
2023-03-30T12:18:45.292Z,26.73
2023-03-30T12:20:21.608Z,26.12
2023-03-30T12:22:06.705Z,26.31
2023-03-30T12:23:50.276Z,26.01
2023-03-30T12:25:55.856Z,26.25
2023-03-30T12:27:29.928Z,25.99
2023-03-30T12:31:00.651Z,26.78
2023-03-30T12:32:36.331Z,27.47
2023-03-30T12:34:08.768Z,26.10
2023-03-30T12:35:50.127Z,25.98
2023-03-30T12:37:29.049Z,27.07
2023-03-30T12:39:03.006Z,27.83
2023-03-30T12:40:38.592Z,26.60
2023-03-30T12:42:27.360Z,26.48
2023-03-30T12:44:15.469Z,27.64
2023-03-30T12:46:14.419Z,28.45
2023-03-30T12:47:59.752Z,27.68
2023-03-30T12:49:38.240Z,28.37
2023-03-30T12:51:25.425Z,28.12
2023-03-30T12:53:03.775Z,27.69
2023-03-30T12:55:07.914Z,28.67
2023-03-30T12:56:51.711Z,28.24
2023-03-30T12:58:52.101Z,29.07
2023-03-30T13:00:49.134Z,28.61
2023-03-30T13:03:06.001Z,29.38
2023-03-30T13:04:39.843Z,28.66
2023-03-30T13:06:39.501Z,29.20
2023-03-30T13:08:39.382Z,28.72
2023-03-30T13:10:29.602Z,31.04
2023-03-30T13:12:01.843Z,29.93
2023-03-30T13:13:52.192Z,29.87
2023-03-30T13:15:30.293Z,30.72
2023-03-30T13:17:02.567Z,31.11
2023-03-30T13:18:40.327Z,30.32
2023-03-30T13:20:29.325Z,29.89
2023-03-30T13:22:11.984Z,31.01
2023-03-30T13:23:45.895Z,30.93
2023-03-30T13:25:21.189Z,31.24
2023-03-30T13:26:54.559Z,31.83
2023-03-30T13:28:35.747Z,30.31
2023-03-30T13:30:10.626Z,30.08
2023-03-30T13:31:47.969Z,31.31
2023-03-30T13:33:22.481Z,32.46
2023-03-30T13:35:33.576Z,32.29
2023-03-30T13:37:20.851Z,30.64
2023-03-30T13:39:04.496Z,32.20
2023-03-30T13:41:03.801Z,30.35
2023-03-30T13:42:42.439Z,30.37
2023-03-30T13:46:13.246Z,30.48
2023-03-30T13:48:01.955Z,31.30
2023-03-30T13:49:54.715Z,30.92
2023-03-30T13:51:28.356Z,31.82
2023-03-30T13:53:04.838Z,31.01
2023-03-30T13:54:38.987Z,30.26
2023-03-30T13:56:11.700Z,30.65
2023-03-30T13:57:45.117Z,30.85
2023-03-30T13:59:20.829Z,30.66
2023-03-30T14:00:56.846Z,30.75
2023-03-30T14:02:30.849Z,31.23
2023-03-30T14:04:04.760Z,31.74
2023-03-30T14:05:39.156Z,31.93
2023-03-30T14:07:17.414Z,32.50
2023-03-30T14:08:52.765Z,31.00
2023-03-30T14:10:25.697Z,30.60
2023-03-30T14:11:59.574Z,30.98
2023-03-30T14:13:31.756Z,30.29
2023-03-30T14:15:04.181Z,30.26
2023-03-30T14:16:38.589Z,31.50
2023-03-30T14:20:17.945Z,31.27
2023-03-30T14:21:52.796Z,31.47
2023-03-30T14:23:38.273Z,32.39
2023-03-30T14:25:30.077Z,32.54
2023-03-30T14:27:22.588Z,33.28
2023-03-30T14:28:59.993Z,33.64
2023-03-30T14:30:32.201Z,33.33
2023-03-30T14:32:09.278Z,33.03
2023-03-30T14:33:42.155Z,33.13
2023-03-30T14:35:18.931Z,31.85
2023-03-30T14:36:51.133Z,31.98
2023-03-30T14:38:27.758Z,32.16
2023-03-30T14:40:06.810Z,32.44
2023-03-30T14:41:39.352Z,33.07
2023-03-30T14:43:16.565Z,32.57
2023-03-30T14:44:51.510Z,32.46
2023-03-30T14:46:33.058Z,32.54
2023-03-30T14:48:05.435Z,32.81
2023-03-30T14:49:38.153Z,32.71
2023-03-30T14:51:42.062Z,33.63
2023-03-30T15:31:20.135Z,33.72
2023-03-30T15:32:56.345Z,34.40
2023-03-30T15:34:28.680Z,36.02
2023-03-30T15:36:11.480Z,34.96
2023-03-30T15:38:03.359Z,35.37
2023-03-30T15:39:36.767Z,35.11
2023-03-30T15:41:09.689Z,35.74
2023-03-30T15:42:42.605Z,34.75
2023-03-30T15:44:20.870Z,35.21
2023-03-30T15:45:56.150Z,35.11
2023-03-30T15:47:29.561Z,34.46
2023-03-30T15:49:01.927Z,35.42
2023-03-30T15:50:36.092Z,35.72
2023-03-30T15:52:34.103Z,36.15
2023-03-30T15:54:20.787Z,35.54
2023-03-30T15:55:53.049Z,34.95
2023-03-30T15:57:29.410Z,36.06
2023-03-30T15:59:02.161Z,36.24
2023-03-30T16:00:35.222Z,37.08
2023-03-30T16:04:02.253Z,37.11
2023-03-30T16:05:35.642Z,36.60
2023-03-30T16:07:18.352Z,36.82
2023-03-30T16:08:50.601Z,36.47
2023-03-30T16:10:28.661Z,36.72
2023-03-30T16:12:00.900Z,37.35
2023-03-30T16:13:33.149Z,36.96
2023-03-30T16:15:06.196Z,36.94
2023-03-30T16:16:38.443Z,36.95
2023-03-30T16:18:13.974Z,37.21
2023-03-30T16:19:46.487Z,37.37
2023-03-30T16:21:19.427Z,37.36
2023-03-30T16:22:52.196Z,37.47
2023-03-30T16:24:24.389Z,37.49
2023-03-30T16:25:58.670Z,37.70
2023-03-30T16:27:30.828Z,37.85
2023-03-30T16:29:02.951Z,38.45
2023-03-30T16:30:37.810Z,39.15
2023-03-30T16:32:10.002Z,39.41
2023-03-30T16:33:42.141Z,39.17
2023-03-30T16:35:14.386Z,39.00
2023-03-30T16:36:48.388Z,39.18
2023-03-30T16:38:20.668Z,39.53
2023-03-30T16:39:52.941Z,39.39
2023-03-30T16:41:25.170Z,39.02
2023-03-30T16:42:57.544Z,39.23
2023-03-30T16:44:29.696Z,39.33
2023-03-30T16:46:01.911Z,39.37
2023-03-30T16:47:34.224Z,39.53
2023-03-30T16:49:14.648Z,39.64
2023-03-30T16:50:50.122Z,39.69
2023-03-30T16:52:22.333Z,39.92
2023-03-30T16:53:54.513Z,40.78
2023-03-30T16:55:26.816Z,42.27
2023-03-30T16:56:59.312Z,41.78
2023-03-30T16:58:31.737Z,42.28
2023-03-30T17:00:14.475Z,42.89
2023-03-30T17:01:46.942Z,43.03
2023-03-30T17:03:21.426Z,43.09
2023-03-30T17:04:53.617Z,44.16
2023-03-30T17:06:26.101Z,44.48
2023-03-30T17:08:05.086Z,45.01
2023-03-30T17:09:37.231Z,44.91
2023-03-30T17:11:11.366Z,45.36
2023-03-30T17:12:43.706Z,45.76
2023-03-30T17:14:16.708Z,45.74
2023-03-30T17:15:48.869Z,46.25
2023-03-30T17:17:22.005Z,47.70
2023-03-30T17:18:54.189Z,47.11
2023-03-30T17:20:48.529Z,47.62
2023-03-30T17:22:20.845Z,46.80
2023-03-30T17:23:53.087Z,47.30
2023-03-30T17:25:27.121Z,47.49
2023-03-30T17:26:59.897Z,47.95
2023-03-30T17:28:35.845Z,48.14
2023-03-30T17:30:20.701Z,48.65
2023-03-30T17:31:52.968Z,49.24
2023-03-30T17:33:26.571Z,49.64
2023-03-30T17:34:58.782Z,50.82
2023-03-30T17:36:34.083Z,49.54
2023-03-30T17:38:09.519Z,49.71
2023-03-30T17:39:41.774Z,49.61
2023-03-30T17:41:14.579Z,50.06
2023-03-30T17:42:47.196Z,51.30
2023-03-30T17:44:19.359Z,50.45
2023-03-30T17:45:51.689Z,51.11
2023-03-30T17:47:23.876Z,53.00
2023-03-30T17:48:56.535Z,52.77
2023-03-30T17:50:34.460Z,52.19
2023-03-30T17:52:06.680Z,52.13
2023-03-30T17:53:39.027Z,52.60
2023-03-30T17:55:11.255Z,52.46
2023-03-30T17:56:43.572Z,52.31
2023-03-30T17:58:24.783Z,52.60
2023-03-30T17:59:57.059Z,52.75
2023-03-30T18:01:29.369Z,53.52
2023-03-30T18:03:01.750Z,54.59
2023-03-30T18:04:34.581Z,53.95
2023-03-30T18:07:39.550Z,54.29
2023-03-30T18:09:17.390Z,53.65
2023-03-30T18:10:54.876Z,53.42
2023-03-30T18:12:27.036Z,54.03
2023-03-30T18:13:59.178Z,53.89
2023-03-30T18:15:32.148Z,54.44
2023-03-30T18:17:06.737Z,54.47
2023-03-30T18:18:39.288Z,54.08
2023-03-30T18:20:31.380Z,54.35
2023-03-30T18:22:03.877Z,54.32
2023-03-30T18:23:36.281Z,53.92
2023-03-30T18:25:10.915Z,53.94
2023-03-30T18:26:49.658Z,53.75
2023-03-30T18:28:25.499Z,54.03
2023-03-30T18:29:57.711Z,54.29
2023-03-30T18:31:32.737Z,54.09
2023-03-30T18:33:05.973Z,54.43
2023-03-30T18:34:38.302Z,54.57
2023-03-30T18:36:14.026Z,54.72
2023-03-30T18:37:46.736Z,54.80
2023-03-30T18:39:20.327Z,56.24
2023-03-30T18:40:58.650Z,57.11
2023-03-30T18:42:30.764Z,57.56
2023-03-30T18:44:02.902Z,56.92
2023-03-30T18:45:38.261Z,56.60
2023-03-30T18:47:10.736Z,56.34
2023-03-30T18:48:42.922Z,56.70
2023-03-30T18:50:43.073Z,55.76
2023-03-30T18:52:16.660Z,55.72
2023-03-30T18:53:48.772Z,55.94
2023-03-30T18:55:20.914Z,55.72
2023-03-30T18:56:53.093Z,56.04
2023-03-30T18:58:30.036Z,55.95
2023-03-30T19:00:03.039Z,55.70
2023-03-30T19:01:37.190Z,56.47
2023-03-30T19:03:12.232Z,57.05
2023-03-30T19:04:44.489Z,56.79
2023-03-30T19:06:22.185Z,57.12
2023-03-30T19:07:54.530Z,58.39
2023-03-30T19:09:40.257Z,58.85
2023-03-30T19:11:19.889Z,59.29
2023-03-30T19:12:53.899Z,58.54
2023-03-30T19:14:26.226Z,58.28
2023-03-30T19:15:58.476Z,58.31
2023-03-30T19:17:30.844Z,58.48
2023-03-30T19:19:03.032Z,59.93
2023-03-30T19:20:38.262Z,59.60
2023-03-30T19:22:10.749Z,59.51
2023-03-30T19:23:43.219Z,59.21
2023-03-30T19:25:16.279Z,59.15
2023-03-30T19:26:48.505Z,59.66
2023-03-30T19:28:20.760Z,59.21
2023-03-30T19:29:52.918Z,58.94
2023-03-30T19:31:25.204Z,58.99
2023-03-30T19:32:59.059Z,58.23
2023-03-30T19:34:31.284Z,58.49
2023-03-30T19:36:03.729Z,60.30
2023-03-30T19:37:37.467Z,60.67
2023-03-30T19:39:09.737Z,60.22
2023-03-30T19:40:42.135Z,60.25
2023-03-30T19:42:14.414Z,60.50
2023-03-30T19:43:50.459Z,60.36
2023-03-30T19:45:24.054Z,59.77
2023-03-30T19:46:58.996Z,59.31
2023-03-30T19:48:31.164Z,59.43
2023-03-30T19:50:05.233Z,60.51
2023-03-30T19:51:37.343Z,60.71
2023-03-30T19:53:09.916Z,59.85
2023-03-30T19:54:42.112Z,59.36
2023-03-30T19:56:15.457Z,59.28
2023-03-30T19:57:47.949Z,59.52
2023-03-30T19:59:20.574Z,59.56
2023-03-30T20:00:52.820Z,59.46
2023-03-30T20:02:25.552Z,60.01
2023-03-30T20:04:00.125Z,60.38
2023-03-30T20:05:32.668Z,60.28
2023-03-30T20:07:05.351Z,60.29
2023-03-30T20:08:38.050Z,61.08
2023-03-30T20:10:14.416Z,61.87
2023-03-30T20:11:47.097Z,62.38
2023-03-30T20:13:23.891Z,63.05
2023-03-30T20:14:56.566Z,62.89
2023-03-30T20:16:30.627Z,62.54
2023-03-30T20:18:02.814Z,61.47
2023-03-30T20:19:35.359Z,60.95
2023-03-30T20:21:07.713Z,60.63
2023-03-30T20:22:42.642Z,60.49
2023-03-30T20:24:15.044Z,60.32
2023-03-30T20:25:49.785Z,60.01
2023-03-30T20:27:22.084Z,59.70
2023-03-30T20:28:54.300Z,60.84
2023-03-30T20:30:26.591Z,61.17
2023-03-30T20:31:59.156Z,61.05
2023-03-30T20:33:33.586Z,60.80
2023-03-30T20:35:07.944Z,60.73
2023-03-30T20:36:40.239Z,60.77
2023-03-30T20:38:12.455Z,60.84
2023-03-30T20:41:22.224Z,60.42
2023-03-30T20:42:54.341Z,60.35
2023-03-30T20:44:32.632Z,60.11
2023-03-30T20:46:09.811Z,60.29
2023-03-30T20:47:42.298Z,60.15
2023-03-30T20:49:16.224Z,60.66
2023-03-30T20:50:48.513Z,60.38
2023-03-30T20:52:22.795Z,60.64
2023-03-30T20:53:55.197Z,61.29
2023-03-30T20:55:27.635Z,61.05
2023-03-30T20:56:59.874Z,61.90
2023-03-30T20:58:32.251Z,61.36
2023-03-30T21:00:07.796Z,61.01
2023-03-30T21:01:41.322Z,60.84
2023-03-30T21:03:14.537Z,61.24
2023-03-30T21:04:50.712Z,61.10
2023-03-30T21:06:24.323Z,61.69
2023-03-30T21:08:00.192Z,61.76
2023-03-30T21:09:34.724Z,61.43
2023-03-30T21:11:07.635Z,62.11
2023-03-30T21:12:40.006Z,61.86
2023-03-30T21:14:13.204Z,62.27
2023-03-30T21:15:45.369Z,62.53
2023-03-30T21:17:17.516Z,62.87
2023-03-30T21:18:50.189Z,63.22
2023-03-30T21:20:22.401Z,63.67
2023-03-30T21:21:54.556Z,63.76
2023-03-30T21:23:27.140Z,63.15
2023-03-30T21:24:59.289Z,62.96
2023-03-30T21:26:31.577Z,62.88
2023-03-30T21:28:03.684Z,62.80
2023-03-30T21:29:35.950Z,63.04
2023-03-30T21:31:09.561Z,63.08
2023-03-30T21:32:41.791Z,63.32
2023-03-30T21:34:15.065Z,63.36
2023-03-30T21:35:51.514Z,63.28
2023-03-30T21:37:23.745Z,63.96
2023-03-30T21:38:57.947Z,64.30
2023-03-30T21:40:30.108Z,63.92
2023-03-30T21:42:03.354Z,64.14